TimeMDT,TemperatureF,Dew PointF,Humidity,Sea Level PressureIn,VisibilityMPH,Wind Direction,Wind SpeedMPH,Gust SpeedMPH,PrecipitationIn,Events,Conditions,WindDirDegrees,DateUTC
12:58 AM,39.6,27.0,61,30.02,10.0,WNW,12.7,-,N/A,,Clear,290,2013-04-12 06:58:00
1:58 AM,39.7,27.1,61,30.03,10.0,WNW,12.7,-,N/A,,Clear,290,2013-04-12 07:58:00
2:58 AM,39.2,27.1,62,30.02,10.0,WNW,12.7,-,N/A,,Clear,290,2013-04-12 08:58:00
3:58 AM,37.9,26.4,63,30.02,10.0,NW,15.0,-,N/A,,Clear,310,2013-04-12 09:58:00
4:58 AM,36.3,25.3,64,30.02,10.0,NW,13.8,-,N/A,,Clear,310,2013-04-12 10:58:00
5:58 AM,35.8,26.1,68,30.03,10.0,NW,13.8,-,N/A,,Clear,320,2013-04-12 11:58:00
6:58 AM,34.9,26.2,71,30.02,10.0,NW,11.5,-,N/A,,Clear,310,2013-04-12 12:58:00
7:58 AM,34.5,26.8,73,30.08,10.0,NW,8.1,-,N/A,,Clear,310,2013-04-12 13:58:00
8:58 AM,39.7,27.5,62,30.09,10.0,West,9.2,-,N/A,,Clear,270,2013-04-12 14:58:00
9:58 AM,46.4,26.2,45,30.09,10.0,WNW,12.7,-,N/A,,Clear,290,2013-04-12 15:58:00
10:58 AM,49.6,24.3,37,30.08,10.0,NNW,6.9,-,N/A,,Clear,330,2013-04-12 16:58:00
12:58 PM,54.5,17.2,23,30.03,10.0,SE,4.6,-,N/A,,Clear,130,2013-04-12 18:58:00
1:58 PM,57.0,15.8,20,29.99,10.0,Variable,2.3,-,N/A,,Clear,0,2013-04-12 19:58:00
2:58 PM,59.0,16.9,19,29.94,10.0,Variable,5.8,-,N/A,,Clear,0,2013-04-12 20:58:00
3:58 PM,61.2,21.2,22,29.90,10.0,SE,8.1,-,N/A,,Clear,140,2013-04-12 21:58:00
4:58 PM,61.5,20.5,21,29.86,10.0,Variable,3.5,-,N/A,,Clear,0,2013-04-12 22:58:00
5:58 PM,61.7,20.5,20,29.83,10.0,East,6.9,-,N/A,,Scattered Clouds,100,2013-04-12 23:58:00
6:58 PM,61.0,20.1,21,29.80,10.0,East,8.1,-,N/A,,Scattered Clouds,80,2013-04-13 00:58:00
7:58 PM,59.5,21.9,23,29.80,10.0,East,6.9,-,N/A,,Overcast,90,2013-04-13 01:58:00
8:58 PM,56.1,23.7,29,29.76,10.0,ESE,6.9,-,N/A,,Overcast,120,2013-04-13 02:58:00
9:58 PM,55.2,23.7,30,29.74,10.0,ESE,10.4,-,N/A,,Overcast,120,2013-04-13 03:58:00
10:58 PM,53.2,25.0,33,29.73,10.0,SE,9.2,-,N/A,,Overcast,140,2013-04-13 04:58:00
11:58 PM,53.2,24.6,33,29.70,10.0,SE,10.4,-,N/A,,Overcast,130,2013-04-13 05:58:00